sensor_id;sensor_type;location;lat;lon;timestamp;P1;durP1;ratioP1;P2;durP2;ratioP2
48975;SDS011;34791;52.752;8.346;2023-09-12T00:02:11;152.02;;;55.72;;
48975;SDS011;34791;52.752;8.346;2023-09-12T00:04:36;164.05;;;57.15;;
48975;SDS011;34791;52.752;8.346;2023-09-12T00:07:01;171.68;;;57.92;;
48975;SDS011;34791;52.752;8.346;2023-09-12T00:09:27;154.63;;;60.22;;
48975;SDS011;34791;52.752;8.346;2023-09-12T00:11:53;163.27;;;59.70;;
48975;SDS011;34791;52.752;8.346;2023-09-12T00:14:19;176.43;;;61.20;;
48975;SDS011;34791;52.752;8.346;2023-09-12T00:16:45;169.23;;;61.60;;
48975;SDS011;34791;52.752;8.346;2023-09-12T00:19:10;175.15;;;59.45;;
48975;SDS011;34791;52.752;8.346;2023-09-12T00:21:35;162.13;;;59.13;;
48975;SDS011;34791;52.752;8.346;2023-09-12T00:24:00;169.73;;;60.90;;
48975;SDS011;34791;52.752;8.346;2023-09-12T00:26:26;164.10;;;59.90;;
48975;SDS011;34791;52.752;8.346;2023-09-12T00:28:51;170.20;;;60.33;;
48975;SDS011;34791;52.752;8.346;2023-09-12T00:31:16;183.27;;;62.50;;
48975;SDS011;34791;52.752;8.346;2023-09-12T00:33:42;188.30;;;63.05;;
48975;SDS011;34791;52.752;8.346;2023-09-12T00:36:07;188.65;;;63.50;;
48975;SDS011;34791;52.752;8.346;2023-09-12T00:38:32;181.45;;;62.78;;
48975;SDS011;34791;52.752;8.346;2023-09-12T00:40:57;234.43;;;66.43;;
48975;SDS011;34791;52.752;8.346;2023-09-12T00:43:23;219.75;;;66.30;;
48975;SDS011;34791;52.752;8.346;2023-09-12T00:45:48;185.15;;;63.25;;
48975;SDS011;34791;52.752;8.346;2023-09-12T00:48:13;188.07;;;63.55;;
48975;SDS011;34791;52.752;8.346;2023-09-12T00:50:39;193.57;;;66.50;;
48975;SDS011;34791;52.752;8.346;2023-09-12T00:53:05;219.30;;;68.68;;
48975;SDS011;34791;52.752;8.346;2023-09-12T00:55:31;252.52;;;68.75;;
48975;SDS011;34791;52.752;8.346;2023-09-12T00:57:57;312.13;;;72.28;;
48975;SDS011;34791;52.752;8.346;2023-09-12T01:03:25;240.57;;;70.32;;
48975;SDS011;34791;52.752;8.346;2023-09-12T01:05:52;259.38;;;73.18;;
48975;SDS011;34791;52.752;8.346;2023-09-12T01:08:18;264.02;;;72.35;;
48975;SDS011;34791;52.752;8.346;2023-09-12T01:10:43;340.88;;;76.35;;
48975;SDS011;34791;52.752;8.346;2023-09-12T01:13:11;256.17;;;69.65;;
48975;SDS011;34791;52.752;8.346;2023-09-12T01:15:36;269.23;;;75.63;;
48975;SDS011;34791;52.752;8.346;2023-09-12T01:18:01;236.73;;;72.10;;
48975;SDS011;34791;52.752;8.346;2023-09-12T01:20:28;239.00;;;71.57;;
48975;SDS011;34791;52.752;8.346;2023-09-12T01:27:51;327.02;;;77.25;;
48975;SDS011;34791;52.752;8.346;2023-09-12T01:30:17;305.95;;;77.65;;
48975;SDS011;34791;52.752;8.346;2023-09-12T01:32:43;462.70;;;85.60;;
48975;SDS011;34791;52.752;8.346;2023-09-12T01:35:08;365.00;;;83.07;;
48975;SDS011;34791;52.752;8.346;2023-09-12T01:37:34;306.30;;;79.78;;
48975;SDS011;34791;52.752;8.346;2023-09-12T01:39:59;325.88;;;81.72;;
48975;SDS011;34791;52.752;8.346;2023-09-12T01:42:24;277.48;;;79.00;;
48975;SDS011;34791;52.752;8.346;2023-09-12T01:44:54;262.55;;;77.65;;
48975;SDS011;34791;52.752;8.346;2023-09-12T01:47:20;292.70;;;82.22;;
48975;SDS011;34791;52.752;8.346;2023-09-12T01:49:46;270.17;;;80.15;;
48975;SDS011;34791;52.752;8.346;2023-09-12T01:52:12;373.20;;;83.85;;
48975;SDS011;34791;52.752;8.346;2023-09-12T01:54:37;303.65;;;82.35;;
48975;SDS011;34791;52.752;8.346;2023-09-12T01:57:03;362.38;;;85.95;;
48975;SDS011;34791;52.752;8.346;2023-09-12T01:59:29;319.98;;;82.97;;
48975;SDS011;34791;52.752;8.346;2023-09-12T02:01:54;367.15;;;83.95;;
48975;SDS011;34791;52.752;8.346;2023-09-12T02:04:20;390.95;;;88.15;;
48975;SDS011;34791;52.752;8.346;2023-09-12T02:06:45;306.73;;;85.53;;
48975;SDS011;34791;52.752;8.346;2023-09-12T02:09:10;345.50;;;88.03;;
48975;SDS011;34791;52.752;8.346;2023-09-12T02:11:35;310.80;;;84.65;;
48975;SDS011;34791;52.752;8.346;2023-09-12T02:14:01;294.85;;;84.47;;
48975;SDS011;34791;52.752;8.346;2023-09-12T02:16:26;290.42;;;83.65;;
48975;SDS011;34791;52.752;8.346;2023-09-12T02:18:51;277.55;;;80.35;;
48975;SDS011;34791;52.752;8.346;2023-09-12T02:21:16;296.50;;;80.95;;
48975;SDS011;34791;52.752;8.346;2023-09-12T02:23:42;269.83;;;80.20;;
48975;SDS011;34791;52.752;8.346;2023-09-12T02:26:07;268.30;;;81.75;;
48975;SDS011;34791;52.752;8.346;2023-09-12T02:28:32;265.50;;;81.57;;
48975;SDS011;34791;52.752;8.346;2023-09-12T02:30:57;243.68;;;74.82;;
48975;SDS011;34791;52.752;8.346;2023-09-12T02:33:23;245.18;;;77.43;;
48975;SDS011;34791;52.752;8.346;2023-09-12T02:35:48;245.10;;;74.72;;
48975;SDS011;34791;52.752;8.346;2023-09-12T02:38:13;224.48;;;77.57;;
48975;SDS011;34791;52.752;8.346;2023-09-12T02:40:38;222.88;;;74.28;;
48975;SDS011;34791;52.752;8.346;2023-09-12T02:43:04;221.82;;;71.88;;
48975;SDS011;34791;52.752;8.346;2023-09-12T02:45:29;205.30;;;70.03;;
48975;SDS011;34791;52.752;8.346;2023-09-12T02:47:54;215.23;;;74.40;;
48975;SDS011;34791;52.752;8.346;2023-09-12T02:50:19;229.95;;;76.80;;
48975;SDS011;34791;52.752;8.346;2023-09-12T02:52:45;221.32;;;74.78;;
48975;SDS011;34791;52.752;8.346;2023-09-12T02:55:10;204.68;;;71.38;;
48975;SDS011;34791;52.752;8.346;2023-09-12T02:57:36;216.32;;;70.63;;
48975;SDS011;34791;52.752;8.346;2023-09-12T03:00:01;183.38;;;61.38;;
48975;SDS011;34791;52.752;8.346;2023-09-12T03:02:26;176.00;;;57.63;;
48975;SDS011;34791;52.752;8.346;2023-09-12T03:04:54;163.30;;;57.60;;
48975;SDS011;34791;52.752;8.346;2023-09-12T03:07:19;137.10;;;49.35;;
48975;SDS011;34791;52.752;8.346;2023-09-12T03:09:47;154.10;;;55.60;;
48975;SDS011;34791;52.752;8.346;2023-09-12T03:12:13;141.80;;;53.25;;
48975;SDS011;34791;52.752;8.346;2023-09-12T03:14:38;143.77;;;53.25;;
48975;SDS011;34791;52.752;8.346;2023-09-12T03:17:03;126.18;;;49.30;;
48975;SDS011;34791;52.752;8.346;2023-09-12T03:19:29;134.07;;;51.17;;
48975;SDS011;34791;52.752;8.346;2023-09-12T03:21:55;123.88;;;48.97;;
48975;SDS011;34791;52.752;8.346;2023-09-12T03:24:20;122.95;;;47.95;;
48975;SDS011;34791;52.752;8.346;2023-09-12T03:26:48;160.30;;;57.90;;
48975;SDS011;34791;52.752;8.346;2023-09-12T03:29:14;216.43;;;61.92;;
48975;SDS011;34791;52.752;8.346;2023-09-12T03:31:39;175.98;;;60.78;;
48975;SDS011;34791;52.752;8.346;2023-09-12T03:34:04;177.23;;;58.45;;
48975;SDS011;34791;52.752;8.346;2023-09-12T03:36:29;189.45;;;58.85;;
48975;SDS011;34791;52.752;8.346;2023-09-12T03:38:54;152.38;;;53.42;;
48975;SDS011;34791;52.752;8.346;2023-09-12T03:41:20;150.73;;;54.05;;
48975;SDS011;34791;52.752;8.346;2023-09-12T03:43:50;179.38;;;58.30;;
48975;SDS011;34791;52.752;8.346;2023-09-12T03:46:15;177.73;;;54.95;;
48975;SDS011;34791;52.752;8.346;2023-09-12T03:48:40;186.27;;;59.22;;
48975;SDS011;34791;52.752;8.346;2023-09-12T03:51:05;189.60;;;60.80;;
48975;SDS011;34791;52.752;8.346;2023-09-12T03:53:30;213.25;;;64.75;;
48975;SDS011;34791;52.752;8.346;2023-09-12T03:55:57;209.98;;;64.97;;
48975;SDS011;34791;52.752;8.346;2023-09-12T03:58:22;223.13;;;62.80;;
48975;SDS011;34791;52.752;8.346;2023-09-12T04:00:47;233.60;;;63.72;;
48975;SDS011;34791;52.752;8.346;2023-09-12T04:03:12;214.98;;;60.40;;
48975;SDS011;34791;52.752;8.346;2023-09-12T04:05:38;212.70;;;61.13;;
48975;SDS011;34791;52.752;8.346;2023-09-12T04:08:03;253.25;;;68.20;;
48975;SDS011;34791;52.752;8.346;2023-09-12T04:10:28;308.60;;;69.30;;
48975;SDS011;34791;52.752;8.346;2023-09-12T04:12:54;266.33;;;66.15;;
48975;SDS011;34791;52.752;8.346;2023-09-12T04:15:19;258.40;;;65.50;;
48975;SDS011;34791;52.752;8.346;2023-09-12T04:17:44;250.10;;;65.85;;
48975;SDS011;34791;52.752;8.346;2023-09-12T04:20:09;242.80;;;63.88;;
48975;SDS011;34791;52.752;8.346;2023-09-12T04:22:38;246.07;;;66.32;;
48975;SDS011;34791;52.752;8.346;2023-09-12T04:25:04;260.73;;;66.32;;
48975;SDS011;34791;52.752;8.346;2023-09-12T04:27:29;239.93;;;63.85;;
48975;SDS011;34791;52.752;8.346;2023-09-12T04:29:54;247.30;;;65.22;;
48975;SDS011;34791;52.752;8.346;2023-09-12T04:32:19;229.10;;;64.82;;
48975;SDS011;34791;52.752;8.346;2023-09-12T04:34:48;214.88;;;61.10;;
48975;SDS011;34791;52.752;8.346;2023-09-12T04:37:13;206.82;;;60.35;;
48975;SDS011;34791;52.752;8.346;2023-09-12T04:39:39;213.25;;;61.05;;
48975;SDS011;34791;52.752;8.346;2023-09-12T04:42:04;218.73;;;63.75;;
48975;SDS011;34791;52.752;8.346;2023-09-12T04:44:34;216.10;;;63.72;;
48975;SDS011;34791;52.752;8.346;2023-09-12T04:46:59;216.95;;;60.92;;
48975;SDS011;34791;52.752;8.346;2023-09-12T04:49:24;210.95;;;62.20;;
48975;SDS011;34791;52.752;8.346;2023-09-12T04:51:49;216.63;;;65.07;;
48975;SDS011;34791;52.752;8.346;2023-09-12T04:54:15;216.85;;;63.75;;
48975;SDS011;34791;52.752;8.346;2023-09-12T04:56:40;224.85;;;66.32;;
48975;SDS011;34791;52.752;8.346;2023-09-12T04:59:05;222.88;;;66.45;;
48975;SDS011;34791;52.752;8.346;2023-09-12T05:01:31;202.23;;;61.97;;
48975;SDS011;34791;52.752;8.346;2023-09-12T05:03:57;196.98;;;61.60;;
48975;SDS011;34791;52.752;8.346;2023-09-12T05:06:22;182.05;;;56.70;;
48975;SDS011;34791;52.752;8.346;2023-09-12T05:08:47;159.00;;;54.95;;
48975;SDS011;34791;52.752;8.346;2023-09-12T05:11:12;157.52;;;54.88;;
48975;SDS011;34791;52.752;8.346;2023-09-12T05:13:38;161.18;;;54.17;;
48975;SDS011;34791;52.752;8.346;2023-09-12T05:16:03;139.77;;;51.05;;
48975;SDS011;34791;52.752;8.346;2023-09-12T05:18:28;146.93;;;52.05;;
48975;SDS011;34791;52.752;8.346;2023-09-12T05:20:53;149.55;;;50.47;;
48975;SDS011;34791;52.752;8.346;2023-09-12T05:23:19;158.27;;;52.20;;
48975;SDS011;34791;52.752;8.346;2023-09-12T05:25:44;167.98;;;51.38;;
48975;SDS011;34791;52.752;8.346;2023-09-12T05:28:09;146.57;;;49.92;;
48975;SDS011;34791;52.752;8.346;2023-09-12T05:30:35;128.48;;;46.95;;
48975;SDS011;34791;52.752;8.346;2023-09-12T05:33:01;120.22;;;44.72;;
48975;SDS011;34791;52.752;8.346;2023-09-12T05:35:26;119.82;;;44.20;;
48975;SDS011;34791;52.752;8.346;2023-09-12T05:37:52;125.60;;;47.08;;
48975;SDS011;34791;52.752;8.346;2023-09-12T05:40:17;106.68;;;43.28;;
48975;SDS011;34791;52.752;8.346;2023-09-12T05:42:43;120.07;;;44.90;;
48975;SDS011;34791;52.752;8.346;2023-09-12T05:45:08;131.38;;;47.35;;
48975;SDS011;34791;52.752;8.346;2023-09-12T05:47:33;127.97;;;45.53;;
48975;SDS011;34791;52.752;8.346;2023-09-12T05:49:58;137.15;;;46.97;;
48975;SDS011;34791;52.752;8.346;2023-09-12T05:52:30;128.55;;;45.92;;
48975;SDS011;34791;52.752;8.346;2023-09-12T05:54:55;127.00;;;44.30;;
48975;SDS011;34791;52.752;8.346;2023-09-12T05:57:21;113.32;;;40.50;;
48975;SDS011;34791;52.752;8.346;2023-09-12T05:59:46;105.32;;;39.63;;
48975;SDS011;34791;52.752;8.346;2023-09-12T06:02:11;120.28;;;42.10;;
48975;SDS011;34791;52.752;8.346;2023-09-12T06:04:36;121.80;;;44.42;;
48975;SDS011;34791;52.752;8.346;2023-09-12T06:07:02;118.25;;;42.05;;
48975;SDS011;34791;52.752;8.346;2023-09-12T06:09:27;128.35;;;45.67;;
48975;SDS011;34791;52.752;8.346;2023-09-12T06:11:53;127.75;;;45.05;;
48975;SDS011;34791;52.752;8.346;2023-09-12T06:14:18;129.82;;;46.97;;
48975;SDS011;34791;52.752;8.346;2023-09-12T06:16:43;117.78;;;45.88;;
48975;SDS011;34791;52.752;8.346;2023-09-12T06:19:09;115.40;;;44.25;;
48975;SDS011;34791;52.752;8.346;2023-09-12T06:21:34;114.45;;;41.95;;
48975;SDS011;34791;52.752;8.346;2023-09-12T06:26:53;104.38;;;41.25;;
48975;SDS011;34791;52.752;8.346;2023-09-12T06:29:18;116.72;;;41.22;;
48975;SDS011;34791;52.752;8.346;2023-09-12T06:31:44;106.63;;;40.53;;
48975;SDS011;34791;52.752;8.346;2023-09-12T06:34:09;106.07;;;40.42;;
48975;SDS011;34791;52.752;8.346;2023-09-12T06:36:34;99.25;;;38.10;;
48975;SDS011;34791;52.752;8.346;2023-09-12T06:39:00;94.50;;;39.55;;
48975;SDS011;34791;52.752;8.346;2023-09-12T06:41:26;93.18;;;38.75;;
48975;SDS011;34791;52.752;8.346;2023-09-12T06:43:51;94.60;;;39.17;;
48975;SDS011;34791;52.752;8.346;2023-09-12T06:46:17;92.60;;;37.95;;
48975;SDS011;34791;52.752;8.346;2023-09-12T06:48:43;91.00;;;39.00;;
48975;SDS011;34791;52.752;8.346;2023-09-12T06:51:08;81.78;;;36.28;;
48975;SDS011;34791;52.752;8.346;2023-09-12T06:53:33;76.60;;;35.63;;
48975;SDS011;34791;52.752;8.346;2023-09-12T06:55:59;69.57;;;35.08;;
48975;SDS011;34791;52.752;8.346;2023-09-12T06:58:24;68.70;;;34.45;;
48975;SDS011;34791;52.752;8.346;2023-09-12T07:00:49;65.55;;;34.03;;
48975;SDS011;34791;52.752;8.346;2023-09-12T07:03:15;66.20;;;34.10;;
48975;SDS011;34791;52.752;8.346;2023-09-12T07:05:41;64.10;;;32.85;;
48975;SDS011;34791;52.752;8.346;2023-09-12T07:08:06;60.40;;;32.97;;
48975;SDS011;34791;52.752;8.346;2023-09-12T07:10:31;55.28;;;32.13;;
48975;SDS011;34791;52.752;8.346;2023-09-12T07:12:57;52.20;;;30.90;;
48975;SDS011;34791;52.752;8.346;2023-09-12T07:15:22;53.03;;;30.73;;
48975;SDS011;34791;52.752;8.346;2023-09-12T07:17:47;49.38;;;30.35;;
48975;SDS011;34791;52.752;8.346;2023-09-12T07:20:14;58.33;;;31.15;;
48975;SDS011;34791;52.752;8.346;2023-09-12T07:22:40;47.67;;;28.85;;
48975;SDS011;34791;52.752;8.346;2023-09-12T07:25:06;41.83;;;26.15;;
48975;SDS011;34791;52.752;8.346;2023-09-12T07:27:31;34.17;;;24.23;;
48975;SDS011;34791;52.752;8.346;2023-09-12T07:29:57;32.88;;;22.88;;
48975;SDS011;34791;52.752;8.346;2023-09-12T07:32:22;32.65;;;21.40;;
48975;SDS011;34791;52.752;8.346;2023-09-12T07:34:47;36.97;;;22.38;;
48975;SDS011;34791;52.752;8.346;2023-09-12T07:37:13;32.38;;;20.65;;
48975;SDS011;34791;52.752;8.346;2023-09-12T07:39:39;33.63;;;21.88;;
48975;SDS011;34791;52.752;8.346;2023-09-12T07:42:04;37.33;;;22.55;;
48975;SDS011;34791;52.752;8.346;2023-09-12T07:44:29;33.65;;;23.15;;
48975;SDS011;34791;52.752;8.346;2023-09-12T07:46:54;30.77;;;20.13;;
48975;SDS011;34791;52.752;8.346;2023-09-12T07:49:20;30.98;;;19.50;;
48975;SDS011;34791;52.752;8.346;2023-09-12T07:51:45;29.80;;;19.65;;
48975;SDS011;34791;52.752;8.346;2023-09-12T07:54:10;28.90;;;19.45;;
48975;SDS011;34791;52.752;8.346;2023-09-12T07:56:35;30.58;;;20.13;;
48975;SDS011;34791;52.752;8.346;2023-09-12T07:59:00;31.63;;;19.77;;
48975;SDS011;34791;52.752;8.346;2023-09-12T08:01:26;31.08;;;21.45;;
48975;SDS011;34791;52.752;8.346;2023-09-12T08:03:52;32.72;;;21.10;;
48975;SDS011;34791;52.752;8.346;2023-09-12T08:06:17;31.20;;;21.42;;
48975;SDS011;34791;52.752;8.346;2023-09-12T08:08:42;33.67;;;21.92;;
48975;SDS011;34791;52.752;8.346;2023-09-12T08:11:08;32.00;;;22.13;;
48975;SDS011;34791;52.752;8.346;2023-09-12T08:13:33;30.70;;;20.40;;
48975;SDS011;34791;52.752;8.346;2023-09-12T08:15:58;31.33;;;21.00;;
48975;SDS011;34791;52.752;8.346;2023-09-12T08:18:28;33.60;;;22.02;;
48975;SDS011;34791;52.752;8.346;2023-09-12T08:20:54;34.03;;;23.13;;
48975;SDS011;34791;52.752;8.346;2023-09-12T08:23:19;35.47;;;23.85;;
48975;SDS011;34791;52.752;8.346;2023-09-12T08:25:45;41.05;;;25.35;;
48975;SDS011;34791;52.752;8.346;2023-09-12T08:28:10;39.20;;;25.83;;
48975;SDS011;34791;52.752;8.346;2023-09-12T08:30:35;37.90;;;25.05;;
48975;SDS011;34791;52.752;8.346;2023-09-12T08:33:00;42.13;;;25.33;;
48975;SDS011;34791;52.752;8.346;2023-09-12T08:35:28;40.92;;;25.58;;
48975;SDS011;34791;52.752;8.346;2023-09-12T08:37:53;42.28;;;25.20;;
48975;SDS011;34791;52.752;8.346;2023-09-12T08:40:18;38.58;;;24.58;;
48975;SDS011;34791;52.752;8.346;2023-09-12T08:42:44;38.92;;;24.33;;
48975;SDS011;34791;52.752;8.346;2023-09-12T08:47:42;41.38;;;23.67;;
48975;SDS011;34791;52.752;8.346;2023-09-12T08:50:09;39.25;;;23.35;;
48975;SDS011;34791;52.752;8.346;2023-09-12T08:52:34;38.47;;;23.67;;
48975;SDS011;34791;52.752;8.346;2023-09-12T08:55:00;40.10;;;23.77;;
48975;SDS011;34791;52.752;8.346;2023-09-12T08:57:25;38.38;;;23.63;;
48975;SDS011;34791;52.752;8.346;2023-09-12T08:59:51;38.55;;;23.90;;
48975;SDS011;34791;52.752;8.346;2023-09-12T09:02:17;37.97;;;24.13;;
48975;SDS011;34791;52.752;8.346;2023-09-12T09:04:42;38.55;;;23.15;;
48975;SDS011;34791;52.752;8.346;2023-09-12T09:07:08;41.08;;;24.00;;
48975;SDS011;34791;52.752;8.346;2023-09-12T09:09:34;36.50;;;24.50;;
48975;SDS011;34791;52.752;8.346;2023-09-12T09:11:59;41.63;;;25.52;;
48975;SDS011;34791;52.752;8.346;2023-09-12T09:14:25;37.78;;;24.05;;
48975;SDS011;34791;52.752;8.346;2023-09-12T09:16:50;37.33;;;23.58;;
48975;SDS011;34791;52.752;8.346;2023-09-12T09:19:15;38.88;;;22.65;;
48975;SDS011;34791;52.752;8.346;2023-09-12T09:21:41;34.85;;;22.13;;
48975;SDS011;34791;52.752;8.346;2023-09-12T09:24:07;38.47;;;22.30;;
48975;SDS011;34791;52.752;8.346;2023-09-12T09:26:46;35.03;;;21.30;;
48975;SDS011;34791;52.752;8.346;2023-09-12T09:29:15;32.50;;;21.58;;
48975;SDS011;34791;52.752;8.346;2023-09-12T09:31:41;34.33;;;20.02;;
48975;SDS011;34791;52.752;8.346;2023-09-12T09:34:19;28.85;;;19.38;;
48975;SDS011;34791;52.752;8.346;2023-09-12T09:36:51;33.75;;;19.88;;
48975;SDS011;34791;52.752;8.346;2023-09-12T09:39:17;30.88;;;20.17;;
48975;SDS011;34791;52.752;8.346;2023-09-12T09:41:47;34.28;;;21.15;;
48975;SDS011;34791;52.752;8.346;2023-09-12T09:44:12;30.85;;;20.45;;
48975;SDS011;34791;52.752;8.346;2023-09-12T09:46:38;33.00;;;21.25;;
48975;SDS011;34791;52.752;8.346;2023-09-12T09:49:03;38.50;;;21.92;;
48975;SDS011;34791;52.752;8.346;2023-09-12T09:51:30;34.40;;;22.00;;
48975;SDS011;34791;52.752;8.346;2023-09-12T09:53:55;36.97;;;22.58;;
48975;SDS011;34791;52.752;8.346;2023-09-12T09:56:23;37.08;;;22.65;;
48975;SDS011;34791;52.752;8.346;2023-09-12T09:58:50;39.17;;;23.85;;
48975;SDS011;34791;52.752;8.346;2023-09-12T10:01:19;41.45;;;24.77;;
48975;SDS011;34791;52.752;8.346;2023-09-12T10:03:51;48.08;;;26.15;;
48975;SDS011;34791;52.752;8.346;2023-09-12T10:06:17;48.13;;;26.05;;
48975;SDS011;34791;52.752;8.346;2023-09-12T10:08:43;48.70;;;25.88;;
48975;SDS011;34791;52.752;8.346;2023-09-12T10:11:09;57.47;;;28.00;;
48975;SDS011;34791;52.752;8.346;2023-09-12T10:13:35;52.42;;;28.27;;
48975;SDS011;34791;52.752;8.346;2023-09-12T10:16:00;50.45;;;27.92;;
48975;SDS011;34791;52.752;8.346;2023-09-12T10:18:29;47.30;;;26.58;;
48975;SDS011;34791;52.752;8.346;2023-09-12T10:20:58;39.60;;;24.23;;
48975;SDS011;34791;52.752;8.346;2023-09-12T10:23:34;48.47;;;26.58;;
48975;SDS011;34791;52.752;8.346;2023-09-12T10:26:02;45.63;;;25.45;;
48975;SDS011;34791;52.752;8.346;2023-09-12T10:28:28;41.60;;;24.80;;
48975;SDS011;34791;52.752;8.346;2023-09-12T10:30:53;40.83;;;24.15;;
48975;SDS011;34791;52.752;8.346;2023-09-12T10:33:19;43.97;;;25.33;;
48975;SDS011;34791;52.752;8.346;2023-09-12T10:35:44;44.65;;;25.30;;
48975;SDS011;34791;52.752;8.346;2023-09-12T10:38:10;41.95;;;24.73;;
48975;SDS011;34791;52.752;8.346;2023-09-12T10:40:39;44.60;;;25.88;;
48975;SDS011;34791;52.752;8.346;2023-09-12T10:43:05;44.10;;;26.65;;
48975;SDS011;34791;52.752;8.346;2023-09-12T10:45:33;40.38;;;25.20;;
48975;SDS011;34791;52.752;8.346;2023-09-12T10:47:58;39.83;;;24.70;;
48975;SDS011;34791;52.752;8.346;2023-09-12T10:50:23;37.05;;;21.92;;
48975;SDS011;34791;52.752;8.346;2023-09-12T10:52:49;32.78;;;20.95;;
48975;SDS011;34791;52.752;8.346;2023-09-12T10:55:18;33.80;;;20.45;;
48975;SDS011;34791;52.752;8.346;2023-09-12T10:58:05;30.92;;;19.90;;
48975;SDS011;34791;52.752;8.346;2023-09-12T11:00:31;27.73;;;19.70;;
48975;SDS011;34791;52.752;8.346;2023-09-12T11:03:35;30.15;;;20.77;;
48975;SDS011;34791;52.752;8.346;2023-09-12T11:05:50;28.40;;;19.63;;
48975;SDS011;34791;52.752;8.346;2023-09-12T11:08:17;27.17;;;19.35;;
48975;SDS011;34791;52.752;8.346;2023-09-12T11:10:42;27.75;;;18.50;;
48975;SDS011;34791;52.752;8.346;2023-09-12T11:13:07;26.88;;;18.63;;
48975;SDS011;34791;52.752;8.346;2023-09-12T11:15:41;30.00;;;17.85;;
48975;SDS011;34791;52.752;8.346;2023-09-12T11:18:26;25.85;;;18.80;;
48975;SDS011;34791;52.752;8.346;2023-09-12T11:21:09;27.52;;;18.67;;
48975;SDS011;34791;52.752;8.346;2023-09-12T11:23:35;25.92;;;17.85;;
48975;SDS011;34791;52.752;8.346;2023-09-12T11:26:04;24.25;;;16.63;;
48975;SDS011;34791;52.752;8.346;2023-09-12T11:28:30;18.88;;;14.48;;
48975;SDS011;34791;52.752;8.346;2023-09-12T11:30:56;19.45;;;14.50;;
48975;SDS011;34791;52.752;8.346;2023-09-12T11:33:23;20.33;;;14.88;;
48975;SDS011;34791;52.752;8.346;2023-09-12T11:35:48;28.80;;;17.85;;
48975;SDS011;34791;52.752;8.346;2023-09-12T11:38:19;25.50;;;17.75;;
48975;SDS011;34791;52.752;8.346;2023-09-12T11:40:50;25.33;;;18.23;;
48975;SDS011;34791;52.752;8.346;2023-09-12T11:43:25;24.88;;;17.08;;
48975;SDS011;34791;52.752;8.346;2023-09-12T11:45:51;21.92;;;16.45;;
48975;SDS011;34791;52.752;8.346;2023-09-12T11:48:17;22.98;;;16.02;;
48975;SDS011;34791;52.752;8.346;2023-09-12T11:50:42;24.88;;;16.98;;
48975;SDS011;34791;52.752;8.346;2023-09-12T11:53:13;19.38;;;13.48;;
48975;SDS011;34791;52.752;8.346;2023-09-12T11:55:43;19.13;;;14.32;;
48975;SDS011;34791;52.752;8.346;2023-09-12T11:58:09;17.60;;;14.07;;
48975;SDS011;34791;52.752;8.346;2023-09-12T12:00:35;19.13;;;12.98;;
48975;SDS011;34791;52.752;8.346;2023-09-12T12:03:00;17.15;;;13.60;;
48975;SDS011;34791;52.752;8.346;2023-09-12T12:05:25;16.80;;;12.73;;
48975;SDS011;34791;52.752;8.346;2023-09-12T12:07:51;18.73;;;13.73;;
48975;SDS011;34791;52.752;8.346;2023-09-12T12:10:16;18.92;;;13.02;;
48975;SDS011;34791;52.752;8.346;2023-09-12T12:12:43;20.55;;;15.43;;
48975;SDS011;34791;52.752;8.346;2023-09-12T12:15:12;20.80;;;14.95;;
48975;SDS011;34791;52.752;8.346;2023-09-12T12:17:37;19.25;;;14.38;;
48975;SDS011;34791;52.752;8.346;2023-09-12T12:20:06;18.63;;;14.27;;
48975;SDS011;34791;52.752;8.346;2023-09-12T12:22:33;17.52;;;13.55;;
48975;SDS011;34791;52.752;8.346;2023-09-12T12:25:05;17.05;;;12.98;;
48975;SDS011;34791;52.752;8.346;2023-09-12T12:27:30;15.00;;;11.35;;
48975;SDS011;34791;52.752;8.346;2023-09-12T12:29:55;17.30;;;11.77;;
48975;SDS011;34791;52.752;8.346;2023-09-12T12:32:21;17.27;;;12.55;;
48975;SDS011;34791;52.752;8.346;2023-09-12T12:34:49;14.63;;;11.07;;
48975;SDS011;34791;52.752;8.346;2023-09-12T12:37:14;13.70;;;10.00;;
48975;SDS011;34791;52.752;8.346;2023-09-12T12:39:42;17.88;;;9.77;;
48975;SDS011;34791;52.752;8.346;2023-09-12T12:42:07;12.35;;;8.35;;
48975;SDS011;34791;52.752;8.346;2023-09-12T12:44:34;10.40;;;8.18;;
48975;SDS011;34791;52.752;8.346;2023-09-12T12:47:03;12.85;;;8.20;;
48975;SDS011;34791;52.752;8.346;2023-09-12T12:49:29;11.57;;;8.63;;
48975;SDS011;34791;52.752;8.346;2023-09-12T12:52:00;16.05;;;9.82;;
48975;SDS011;34791;52.752;8.346;2023-09-12T12:54:31;13.90;;;8.98;;
48975;SDS011;34791;52.752;8.346;2023-09-12T12:56:56;14.73;;;9.13;;
48975;SDS011;34791;52.752;8.346;2023-09-12T12:59:22;12.95;;;8.95;;
48975;SDS011;34791;52.752;8.346;2023-09-12T13:01:47;11.68;;;8.32;;
48975;SDS011;34791;52.752;8.346;2023-09-12T13:04:12;11.65;;;8.38;;
48975;SDS011;34791;52.752;8.346;2023-09-12T13:06:37;11.70;;;9.20;;
48975;SDS011;34791;52.752;8.346;2023-09-12T13:09:03;14.02;;;9.63;;
48975;SDS011;34791;52.752;8.346;2023-09-12T13:11:33;18.25;;;11.30;;
48975;SDS011;34791;52.752;8.346;2023-09-12T13:13:59;15.10;;;10.60;;
48975;SDS011;34791;52.752;8.346;2023-09-12T13:16:25;15.35;;;10.65;;
48975;SDS011;34791;52.752;8.346;2023-09-12T13:18:50;13.98;;;9.68;;
48975;SDS011;34791;52.752;8.346;2023-09-12T13:21:15;12.52;;;9.65;;
48975;SDS011;34791;52.752;8.346;2023-09-12T13:23:40;11.82;;;8.80;;
48975;SDS011;34791;52.752;8.346;2023-09-12T13:26:07;13.45;;;10.10;;
48975;SDS011;34791;52.752;8.346;2023-09-12T13:28:32;15.77;;;10.20;;
48975;SDS011;34791;52.752;8.346;2023-09-12T13:30:58;13.32;;;10.00;;
48975;SDS011;34791;52.752;8.346;2023-09-12T13:33:23;12.80;;;9.73;;
48975;SDS011;34791;52.752;8.346;2023-09-12T13:35:49;12.98;;;9.73;;
48975;SDS011;34791;52.752;8.346;2023-09-12T13:38:14;13.13;;;9.68;;
48975;SDS011;34791;52.752;8.346;2023-09-12T13:40:42;13.07;;;9.82;;
48975;SDS011;34791;52.752;8.346;2023-09-12T13:43:07;14.55;;;10.07;;
48975;SDS011;34791;52.752;8.346;2023-09-12T13:45:33;13.38;;;10.10;;
48975;SDS011;34791;52.752;8.346;2023-09-12T13:47:58;11.68;;;8.98;;
48975;SDS011;34791;52.752;8.346;2023-09-12T13:50:24;11.52;;;8.27;;
48975;SDS011;34791;52.752;8.346;2023-09-12T13:52:49;13.13;;;8.63;;
48975;SDS011;34791;52.752;8.346;2023-09-12T13:55:15;15.50;;;9.50;;
48975;SDS011;34791;52.752;8.346;2023-09-12T13:57:41;16.20;;;9.85;;
48975;SDS011;34791;52.752;8.346;2023-09-12T14:00:06;18.50;;;10.80;;
48975;SDS011;34791;52.752;8.346;2023-09-12T14:02:32;16.92;;;9.75;;
48975;SDS011;34791;52.752;8.346;2023-09-12T14:04:57;15.05;;;9.93;;
48975;SDS011;34791;52.752;8.346;2023-09-12T14:07:22;14.82;;;10.48;;
48975;SDS011;34791;52.752;8.346;2023-09-12T14:09:48;15.63;;;10.20;;
48975;SDS011;34791;52.752;8.346;2023-09-12T14:12:14;14.93;;;10.70;;
48975;SDS011;34791;52.752;8.346;2023-09-12T14:14:40;15.88;;;10.57;;
48975;SDS011;34791;52.752;8.346;2023-09-12T14:17:05;15.15;;;10.60;;
48975;SDS011;34791;52.752;8.346;2023-09-12T14:19:30;15.65;;;11.10;;
48975;SDS011;34791;52.752;8.346;2023-09-12T14:21:56;15.60;;;11.57;;
48975;SDS011;34791;52.752;8.346;2023-09-12T14:24:21;16.48;;;12.15;;